Time;durP1;ratioP1;P1;durP2;ratioP2;P2;SDS_P1;SDS_P2;PMS_P1;PMS_P2;Temp;Humidity;BMP_temperature;BMP_pressure;BME280_temperature;BME280_humidity;BME280_pressure;Samples;Min_cycle;Max_cycle;Signal;HPM_P1;HPM_P2
2023/09/29 00:01:26;;;;;;;5.85;3.58;;;;;;;-142.91;100.00;56616.03;5043775;28;20597;-63
2023/09/29 00:03:54;;;;;;;16.10;3.63;;;;;;;-142.91;100.00;56616.03;5046879;28;20398;-63
2023/09/29 00:06:21;;;;;;;8.43;6.13;;;;;;;-142.91;100.00;56616.03;5047530;28;20254;-65
2023/09/29 00:08:48;;;;;;;9.57;4.78;;;;;;;-142.91;100.00;56616.03;5047300;28;20268;-64
2023/09/29 00:11:14;;;;;;;10.73;4.40;;;;;;;-142.91;100.00;56616.03;5048697;28;20252;-63
2023/09/29 00:13:41;;;;;;;12.88;4.00;;;;;;;-142.91;100.00;56616.03;5047117;28;20587;-62
2023/09/29 00:16:08;;;;;;;13.90;4.25;;;;;;;-142.91;100.00;56616.03;5047853;28;20702;-63
2023/09/29 00:18:34;;;;;;;12.25;3.80;;;;;;;-142.91;100.00;56616.03;5047575;28;20223;-60
2023/09/29 00:21:03;;;;;;;11.52;3.33;;;;;;;-142.91;100.00;56616.03;5048567;28;20206;-63
2023/09/29 00:23:29;;;;;;;6.95;3.90;;;;;;;-142.91;100.00;56616.03;5047417;28;20207;-63
2023/09/29 00:25:56;;;;;;;6.15;3.33;;;;;;;-142.91;100.00;56616.03;5047750;28;20218;-62
2023/09/29 00:28:23;;;;;;;9.07;4.10;;;;;;;-142.91;100.00;56616.03;5046985;28;20231;-63
2023/09/29 00:30:49;;;;;;;11.63;3.60;;;;;;;-142.91;100.00;56616.03;5046446;28;20296;-61
2023/09/29 00:33:16;;;;;;;7.10;3.78;;;;;;;-142.91;100.00;56616.03;5046920;28;20210;-63
2023/09/29 00:35:43;;;;;;;7.50;3.80;;;;;;;-142.91;100.00;56616.03;5047476;28;20199;-64
2023/09/29 00:38:11;;;;;;;9.10;3.45;;;;;;;-142.91;100.00;56616.03;5047028;28;20202;-64
2023/09/29 00:40:37;;;;;;;8.13;3.75;;;;;;;-142.91;100.00;56616.03;5045003;28;20710;-61
2023/09/29 00:43:05;;;;;;;7.35;3.53;;;;;;;-142.91;100.00;56616.03;5047188;28;20677;-63
2023/09/29 00:45:33;;;;;;;13.25;3.30;;;;;;;-142.91;100.00;56616.03;5047634;28;20280;-65
2023/09/29 00:48:07;;;;;;;7.60;3.60;;;;;;;-142.91;100.00;56616.03;5045717;28;20195;-63
2023/09/29 00:50:34;;;;;;;4.20;3.85;;;;;;;-142.91;100.00;56616.03;5047479;28;20681;-63
2023/09/29 00:53:06;;;;;;;6.75;3.30;;;;;;;-142.91;100.00;56616.03;5046931;28;20284;-65
2023/09/29 00:55:37;;;;;;;7.28;3.10;;;;;;;-142.91;100.00;56616.03;5046678;28;20199;-63
2023/09/29 00:58:06;;;;;;;11.98;3.38;;;;;;;-142.91;100.00;56616.03;5046686;28;20206;-63
2023/09/29 01:00:36;;;;;;;7.18;3.47;;;;;;;-142.91;100.00;56616.03;5046918;28;20254;-63
2023/09/29 01:03:05;;;;;;;3.85;2.97;;;;;;;-142.91;100.00;56616.03;5046948;28;20676;-64
2023/09/29 01:05:36;;;;;;;8.85;3.33;;;;;;;-142.91;100.00;56616.03;5046516;28;20223;-64
2023/09/29 01:08:08;;;;;;;6.63;3.00;;;;;;;-142.91;100.00;56616.03;5046063;28;20203;-63
2023/09/29 01:10:36;;;;;;;6.40;2.97;;;;;;;-142.91;100.00;56616.03;5046921;28;20268;-62
2023/09/29 01:13:03;;;;;;;5.25;2.80;;;;;;;-142.91;100.00;56616.03;5044920;28;20231;-64
2023/09/29 01:15:32;;;;;;;10.85;3.28;;;;;;;-142.91;100.00;56616.03;5046185;28;20657;-65
2023/09/29 01:17:58;;;;;;;6.43;2.92;;;;;;;-142.91;100.00;56616.03;5046431;28;20291;-64
2023/09/29 01:20:28;;;;;;;5.03;3.40;;;;;;;-142.91;100.00;56616.03;5044807;28;20645;-63
2023/09/29 01:22:56;;;;;;;5.20;3.42;;;;;;;-142.91;100.00;56616.03;5046463;28;20268;-64
2023/09/29 01:25:24;;;;;;;13.35;3.47;;;;;;;-142.91;100.00;56616.03;5045459;28;20773;-63
2023/09/29 01:27:52;;;;;;;7.93;3.75;;;;;;;-142.91;100.00;56616.03;5045820;28;21305;-63
2023/09/29 01:30:19;;;;;;;5.30;2.97;;;;;;;-142.91;100.00;56616.03;5045828;28;20731;-63
2023/09/29 01:32:48;;;;;;;16.17;3.78;;;;;;;-142.91;100.00;56616.03;5046741;28;21244;-63
2023/09/29 01:35:18;;;;;;;5.15;3.55;;;;;;;-142.91;100.00;56616.03;5045762;28;20199;-63
2023/09/29 01:37:46;;;;;;;4.35;2.78;;;;;;;-142.91;100.00;56616.03;5046395;28;20204;-64
2023/09/29 01:40:14;;;;;;;6.78;3.60;;;;;;;-142.91;100.00;56616.03;5045908;28;20306;-65
2023/09/29 01:42:43;;;;;;;6.97;3.05;;;;;;;-142.91;100.00;56616.03;5046022;28;20211;-62
2023/09/29 01:45:10;;;;;;;9.50;3.38;;;;;;;-142.91;100.00;56616.03;5044161;28;20753;-63
2023/09/29 01:47:38;;;;;;;3.40;2.97;;;;;;;-142.91;100.00;56616.03;5046133;28;20257;-63
2023/09/29 01:50:06;;;;;;;5.22;3.20;;;;;;;-142.91;100.00;56616.03;5046015;28;20226;-61
2023/09/29 01:52:32;;;;;;;5.35;3.17;;;;;;;-142.91;100.00;56616.03;5045199;28;20616;-63
2023/09/29 01:54:59;;;;;;;6.80;3.42;;;;;;;-142.91;100.00;56616.03;5045994;28;20711;-63
2023/09/29 01:57:26;;;;;;;7.88;2.95;;;;;;;-142.91;100.00;56616.03;5046101;28;20742;-64
2023/09/29 01:59:54;;;;;;;4.43;3.05;;;;;;;-142.91;100.00;56616.03;5044918;28;20286;-62
2023/09/29 02:02:21;;;;;;;4.72;2.95;;;;;;;-142.91;100.00;56616.03;5046142;28;20206;-62
2023/09/29 02:04:48;;;;;;;9.55;3.90;;;;;;;-142.91;100.00;56616.03;5046238;28;20210;-64
2023/09/29 02:07:15;;;;;;;6.80;3.35;;;;;;;-142.91;100.00;56616.03;5045836;28;20704;-65
2023/09/29 02:09:42;;;;;;;6.20;3.05;;;;;;;-142.91;100.00;56616.03;5045361;28;20291;-63
2023/09/29 02:12:10;;;;;;;6.68;3.15;;;;;;;-142.91;100.00;56616.03;5045886;28;20206;-64
2023/09/29 02:14:37;;;;;;;11.27;3.38;;;;;;;-142.91;100.00;56616.03;5044290;28;20209;-64
2023/09/29 02:17:06;;;;;;;11.15;3.47;;;;;;;-142.91;100.00;56616.03;5045807;28;20195;-65
2023/09/29 02:19:36;;;;;;;10.35;4.15;;;;;;;-142.91;100.00;56616.03;5045638;28;20206;-64
2023/09/29 02:22:02;;;;;;;10.75;3.40;;;;;;;-142.91;100.00;56616.03;5045148;28;20234;-65
2023/09/29 02:24:30;;;;;;;15.98;4.32;;;;;;;-142.91;100.00;56616.03;5044501;28;20276;-64
2023/09/29 02:26:57;;;;;;;12.80;3.85;;;;;;;-142.91;100.00;56616.03;5044549;28;20235;-62
2023/09/29 02:29:25;;;;;;;10.57;4.35;;;;;;;-142.91;100.00;56616.03;5044890;28;20681;-62
2023/09/29 02:31:51;;;;;;;8.52;3.53;;;;;;;-142.91;100.00;56616.03;5045108;28;20215;-63
2023/09/29 02:34:19;;;;;;;5.03;4.13;;;;;;;-142.91;100.00;56616.03;5044821;28;20664;-63
2023/09/29 02:36:46;;;;;;;6.00;3.40;;;;;;;-142.91;100.00;56616.03;5045246;28;20206;-64
2023/09/29 02:39:13;;;;;;;8.30;4.13;;;;;;;-142.91;100.00;56616.03;5044820;28;20264;-63
2023/09/29 02:41:39;;;;;;;5.97;3.83;;;;;;;-142.91;100.00;56616.03;5045397;28;20203;-64
2023/09/29 02:44:07;;;;;;;13.50;3.88;;;;;;;-142.91;100.00;56616.03;5044526;28;20265;-63
2023/09/29 02:46:33;;;;;;;3.60;3.08;;;;;;;-142.91;100.00;56616.03;5044351;28;20219;-63
2023/09/29 02:49:00;;;;;;;9.98;3.50;;;;;;;-142.91;100.00;56616.03;5044557;28;20202;-64
2023/09/29 02:51:28;;;;;;;4.97;3.33;;;;;;;-142.91;100.00;56616.03;5044896;28;20199;-62
2023/09/29 02:53:55;;;;;;;11.18;3.03;;;;;;;-142.91;100.00;56616.03;5044792;28;20288;-66
2023/09/29 02:56:23;;;;;;;7.95;3.63;;;;;;;-142.91;100.00;56616.03;5044975;28;20265;-63
2023/09/29 02:58:52;;;;;;;4.13;3.20;;;;;;;-142.91;100.00;56616.03;5043977;28;20199;-62
2023/09/29 03:01:19;;;;;;;11.63;4.03;;;;;;;-142.91;100.00;56616.03;5044933;28;20230;-63
2023/09/29 03:03:46;;;;;;;11.57;3.95;;;;;;;-142.91;100.00;56616.03;5045431;28;20203;-63
2023/09/29 03:06:16;;;;;;;13.48;3.90;;;;;;;-142.91;100.00;56616.03;5048921;28;20211;-62
2023/09/29 03:08:44;;;;;;;9.43;3.83;;;;;;;-142.91;100.00;56616.03;5049228;28;20203;-64
2023/09/29 03:11:12;;;;;;;5.80;3.78;;;;;;;-142.91;100.00;56616.03;5048071;28;20967;-63
2023/09/29 03:13:40;;;;;;;13.73;3.72;;;;;;;-142.91;100.00;56616.03;5044335;28;20207;-63
2023/09/29 03:16:07;;;;;;;8.02;3.35;;;;;;;-142.91;100.00;56616.03;5044913;28;20295;-64
2023/09/29 03:18:35;;;;;;;6.50;4.10;;;;;;;-142.91;100.00;56616.03;5045296;28;20203;-64
2023/09/29 03:21:01;;;;;;;6.68;2.92;;;;;;;-142.91;100.00;56616.03;5044725;28;20199;-64
2023/09/29 03:23:29;;;;;;;5.53;3.63;;;;;;;-142.91;100.00;56616.03;5044805;28;20207;-63
2023/09/29 03:25:57;;;;;;;17.20;3.75;;;;;;;-142.91;100.00;56616.03;5044623;28;20361;-65
2023/09/29 03:28:25;;;;;;;3.67;3.00;;;;;;;-142.91;100.00;56616.03;5044268;28;20715;-64
2023/09/29 03:30:52;;;;;;;3.92;3.03;;;;;;;-142.91;100.00;56616.03;5044122;28;20215;-64
2023/09/29 03:33:19;;;;;;;9.98;4.30;;;;;;;-142.91;100.00;56616.03;5044901;28;20203;-64
2023/09/29 03:35:47;;;;;;;8.40;3.90;;;;;;;-142.91;100.00;56616.03;5044050;28;20248;-65
2023/09/29 03:38:14;;;;;;;16.23;4.43;;;;;;;-142.91;100.00;56616.03;5043502;28;20238;-63
2023/09/29 03:40:44;;;;;;;7.30;3.75;;;;;;;-142.91;100.00;56616.03;5043622;28;20207;-63
2023/09/29 03:43:13;;;;;;;8.43;3.88;;;;;;;-142.91;100.00;56616.03;5045026;28;20226;-64
2023/09/29 03:45:40;;;;;;;10.45;3.88;;;;;;;-142.91;100.00;56616.03;5043120;28;20198;-65
2023/09/29 03:48:07;;;;;;;18.23;3.97;;;;;;;-142.91;100.00;56616.03;5044379;28;20230;-64
2023/09/29 03:50:35;;;;;;;10.68;4.10;;;;;;;-142.91;100.00;56616.03;5044539;28;20253;-65
2023/09/29 03:53:02;;;;;;;7.75;3.80;;;;;;;-142.91;100.00;56616.03;5042201;28;20203;-64
2023/09/29 03:55:29;;;;;;;7.38;3.90;;;;;;;-142.91;100.00;56616.03;5044234;28;20656;-63
2023/09/29 03:57:55;;;;;;;9.63;3.80;;;;;;;-142.91;100.00;56616.03;5045020;28;20316;-64
2023/09/29 04:00:23;;;;;;;25.48;10.70;;;;;;;-142.91;100.00;56616.03;5044587;28;20226;-64
2023/09/29 04:02:51;;;;;;;11.73;6.07;;;;;;;-142.91;100.00;56616.03;5044587;28;20202;-61
2023/09/29 04:05:18;;;;;;;10.07;4.63;;;;;;;16.47;nan;95518.94;5044079;28;20676;-62
2023/09/29 04:07:45;;;;;;;7.18;3.88;;;;;;;16.60;nan;95516.56;5044187;28;20694;-63
2023/09/29 04:10:13;;;;;;;6.43;4.75;;;;;;;16.40;nan;95519.31;5044751;28;20211;-64
2023/09/29 04:12:41;;;;;;;8.93;4.93;;;;;;;16.39;nan;95522.78;5048575;28;20210;-63
2023/09/29 04:15:09;;;;;;;20.67;8.45;;;;;;;16.34;nan;95513.56;5049276;28;20742;-62
2023/09/29 04:17:38;;;;;;;26.27;14.23;;;;;;;16.42;nan;95520.06;5048238;28;20199;-62
2023/09/29 04:20:06;;;;;;;18.52;9.55;;;;;;;16.38;nan;95518.53;5045960;28;20246;-65
2023/09/29 04:22:34;;;;;;;10.95;5.85;;;;;;;16.27;nan;95526.78;5044108;28;20200;-65
2023/09/29 04:25:01;;;;;;;18.15;7.22;;;;;;;16.45;nan;95525.88;5044313;28;20196;-66
2023/09/29 04:27:27;;;;;;;15.10;7.38;;;;;;;16.31;nan;95524.00;5043967;28;20235;-62
2023/09/29 04:29:55;;;;;;;17.23;7.22;;;;;;;16.31;nan;95530.88;5044013;28;20292;-64
2023/09/29 04:32:21;;;;;;;12.77;6.50;;;;;;;16.38;nan;95533.94;5046384;28;20211;-58
2023/09/29 04:34:49;;;;;;;14.05;5.38;;;;;;;16.52;nan;95531.53;5054273;28;20195;-59
2023/09/29 04:37:16;;;;;;;19.80;6.68;;;;;;;16.57;nan;95534.72;5054249;28;20195;-61
2023/09/29 04:39:43;;;;;;;14.75;6.13;;;;;;;16.59;nan;95536.28;5052222;28;20581;-62
2023/09/29 04:42:10;;;;;;;26.33;9.93;;;;;;;16.58;nan;95532.03;5043686;28;20645;-64
2023/09/29 04:44:38;;;;;;;57.88;31.50;;;;;;;16.50;nan;95533.34;5043538;28;20707;-65
2023/09/29 04:47:06;;;;;;;24.33;12.25;;;;;;;16.55;nan;95529.66;5043776;28;20227;-63
2023/09/29 04:49:33;;;;;;;19.50;9.80;;;;;;;16.62;nan;95523.28;5046179;28;20227;-64
2023/09/29 04:52:01;;;;;;;13.77;6.75;;;;;;;16.78;nan;95545.69;5047239;28;20640;-64
2023/09/29 04:54:27;;;;;;;8.85;5.10;;;;;;;16.88;nan;95545.13;5047147;28;20735;-62
2023/09/29 04:56:54;;;;;;;15.52;5.50;;;;;;;16.96;nan;95548.16;5047398;28;20199;-64
2023/09/29 04:59:21;;;;;;;17.13;6.85;;;;;;;17.17;nan;95540.25;5047237;28;20684;-63
2023/09/29 05:01:47;;;;;;;18.38;5.28;;;;;;;17.34;nan;95553.03;5047408;28;20398;-64
2023/09/29 05:04:14;;;;;;;12.07;5.65;;;;;;;17.41;nan;95551.81;5047589;28;20298;-63
2023/09/29 05:06:41;;;;;;;17.75;6.45;;;;;;;17.38;nan;95544.25;5047036;28;20727;-63
2023/09/29 05:09:11;;;;;;;18.67;6.15;;;;;;;17.34;nan;95547.88;5047605;28;21002;-63
2023/09/29 05:11:38;;;;;;;14.77;6.15;;;;;;;17.31;nan;95543.78;5047042;28;20206;-64
2023/09/29 05:14:05;;;;;;;17.40;6.20;;;;;;;17.35;nan;95550.38;5046945;28;20199;-63
2023/09/29 05:16:31;;;;;;;12.40;5.88;;;;;;;17.60;nan;95555.06;5047357;28;20191;-65
2023/09/29 05:18:59;;;;;;;15.43;5.72;;;;;;;17.85;nan;95556.34;5046998;28;20203;-61
2023/09/29 05:21:26;;;;;;;15.00;6.40;;;;;;;17.98;nan;95550.47;5046434;28;20205;-64
2023/09/29 05:23:53;;;;;;;19.70;6.35;;;;;;;18.19;nan;95550.19;5046707;28;20206;-65
2023/09/29 05:26:21;;;;;;;16.95;6.28;;;;;;;18.41;nan;95552.38;5046394;28;20774;-65
2023/09/29 05:28:49;;;;;;;12.07;5.25;;;;;;;18.60;nan;95560.75;5046644;28;20763;-65
2023/09/29 05:31:16;;;;;;;25.77;6.13;;;;;;;18.85;nan;95553.25;5046289;28;20313;-65
2023/09/29 05:33:43;;;;;;;19.15;5.65;;;;;;;19.06;nan;95555.50;5046729;28;20210;-62
2023/09/29 05:36:09;;;;;;;15.55;5.32;;;;;;;19.33;nan;95559.00;5046549;28;20199;-64
2023/09/29 05:38:37;;;;;;;17.08;5.18;;;;;;;19.64;nan;95561.44;5047075;28;20229;-63
2023/09/29 05:41:03;;;;;;;7.68;4.90;;;;;;;19.83;nan;95560.28;5046644;28;20261;-65
2023/09/29 05:43:31;;;;;;;17.67;5.03;;;;;;;20.05;nan;95558.03;5046113;28;20222;-63
2023/09/29 05:45:58;;;;;;;10.27;4.75;;;;;;;20.38;nan;95568.00;5045834;28;20298;-62
2023/09/29 05:48:25;;;;;;;16.05;5.60;;;;;;;20.63;nan;95569.81;5046061;28;20704;-64
2023/09/29 05:50:52;;;;;;;21.38;5.75;;;;;;;20.08;nan;95570.72;5046548;28;20245;-66
2023/09/29 05:53:19;;;;;;;7.95;4.68;;;;;;;20.31;nan;95567.53;5046242;28;20199;-64
2023/09/29 05:55:45;;;;;;;18.33;5.50;;;;;;;20.04;nan;95567.50;5045983;28;20203;-63
2023/09/29 05:58:12;;;;;;;13.15;5.68;;;;;;;20.01;nan;95574.66;5045862;28;20752;-64
2023/09/29 06:00:41;;;;;;;21.63;6.10;;;;;;;19.96;nan;95566.34;5045186;28;20666;-61
2023/09/29 06:03:08;;;;;;;20.20;5.95;;;;;;;19.84;nan;95572.25;5046228;28;20202;-65
2023/09/29 06:05:35;;;;;;;12.95;5.15;;;;;;;19.62;nan;95565.84;5046366;28;20215;-63
2023/09/29 06:08:02;;;;;;;14.55;5.47;;;;;;;19.92;nan;95577.78;5045994;28;20636;-64
2023/09/29 06:10:29;;;;;;;15.00;5.93;;;;;;;20.08;nan;95563.00;5046068;28;20288;-63
2023/09/29 06:12:55;;;;;;;18.83;6.47;;;;;;;20.30;nan;95568.44;5045557;28;20253;-66
2023/09/29 06:15:22;;;;;;;9.38;6.13;;;;;;;20.68;nan;95567.78;5046091;28;20234;-62
2023/09/29 06:17:50;;;;;;;17.17;6.40;;;;;;;21.01;nan;95560.41;5045722;28;20695;-63
2023/09/29 06:20:18;;;;;;;26.60;6.35;;;;;;;20.98;nan;95568.34;5046606;28;20293;-66
2023/09/29 06:22:45;;;;;;;13.32;5.18;;;;;;;21.25;nan;95567.47;5045154;28;20203;-65
2023/09/29 06:25:12;;;;;;;16.08;6.20;;;;;;;21.54;nan;95563.69;5045891;28;21404;-64
2023/09/29 06:27:38;;;;;;;13.90;5.80;;;;;;;21.87;nan;95575.22;5043967;28;20235;-64
2023/09/29 06:30:06;;;;;;;11.50;5.25;;;;;;;22.16;nan;95563.69;5046187;28;20230;-65
2023/09/29 06:32:33;;;;;;;14.23;5.40;;;;;;;22.24;nan;95568.31;5045591;28;20294;-62
2023/09/29 06:35:01;;;;;;;14.30;5.35;;;;;;;22.59;nan;95563.16;5045918;28;20235;-66
2023/09/29 06:37:28;;;;;;;16.55;6.15;;;;;;;23.12;nan;95569.59;5045037;28;20292;-64
2023/09/29 06:39:54;;;;;;;13.98;5.68;;;;;;;23.82;nan;95571.19;5045955;28;20288;-62
2023/09/29 06:42:21;;;;;;;17.38;5.90;;;;;;;24.02;nan;95562.66;5045305;28;20265;-63
2023/09/29 06:44:48;;;;;;;12.77;5.38;;;;;;;23.97;nan;95555.28;5045605;28;20203;-65
2023/09/29 06:47:14;;;;;;;20.33;6.35;;;;;;;24.03;nan;95559.13;5044914;28;20326;-65
2023/09/29 06:49:41;;;;;;;21.15;6.32;;;;;;;24.14;nan;95566.09;5045442;28;20230;-66
2023/09/29 06:52:09;;;;;;;32.00;9.07;;;;;;;24.49;nan;95565.91;5044957;28;20248;-63
2023/09/29 06:54:35;;;;;;;20.90;8.68;;;;;;;24.82;nan;95552.75;5045156;28;20219;-64
2023/09/29 06:57:02;;;;;;;15.98;7.63;;;;;;;25.22;nan;95560.72;5045329;28;20195;-65
2023/09/29 06:59:29;;;;;;;16.15;6.68;;;;;;;25.35;nan;95544.91;5044827;28;20685;-63
2023/09/29 07:01:55;;;;;;;24.25;7.80;;;;;;;25.74;nan;95557.13;5044764;28;20206;-63
2023/09/29 07:04:22;;;;;;;16.60;7.97;;;;;;;25.84;nan;95558.97;5045321;28;20211;-64
2023/09/29 07:06:49;;;;;;;15.15;5.75;;;;;;;25.82;nan;95559.09;5044782;28;20752;-65
2023/09/29 07:09:17;;;;;;;11.35;5.82;;;;;;;25.79;nan;95551.53;5044565;28;20203;-64
2023/09/29 07:11:44;;;;;;;14.82;5.53;;;;;;;26.03;nan;95548.59;5044829;28;20241;-63
2023/09/29 07:14:11;;;;;;;16.67;5.10;;;;;;;26.32;nan;95557.31;5044812;28;20195;-63
2023/09/29 07:16:38;;;;;;;17.70;4.65;;;;;;;26.90;nan;95540.88;5044242;28;20223;-64
2023/09/29 07:19:05;;;;;;;19.17;4.65;;;;;;;27.61;nan;95547.31;5044341;28;20683;-66
2023/09/29 07:21:31;;;;;;;12.52;4.68;;;;;;;28.18;nan;95549.78;5044587;28;20226;-64
2023/09/29 07:23:58;;;;;;;20.25;4.90;;;;;;;28.42;nan;95558.75;5044891;28;20230;-65
2023/09/29 07:26:27;;;;;;;15.40;4.75;;;;;;;28.46;nan;95553.22;5044413;28;20207;-64
2023/09/29 07:28:54;;;;;;;19.45;5.50;;;;;;;28.34;nan;95558.66;5044609;28;20223;-65
2023/09/29 07:31:21;;;;;;;16.40;5.00;;;;;;;27.97;nan;95556.06;5044707;28;20234;-67
2023/09/29 07:33:48;;;;;;;11.57;5.25;;;;;;;27.64;nan;95559.28;5044948;28;20302;-63
2023/09/29 07:36:14;;;;;;;15.30;4.93;;;;;;;27.71;nan;95558.56;5044258;28;20325;-65
2023/09/29 07:38:41;;;;;;;14.30;5.40;;;;;;;27.87;nan;95557.13;5044113;28;20218;-63
2023/09/29 07:41:08;;;;;;;8.85;4.60;;;;;;;28.14;nan;95564.13;5044577;28;20660;-64
2023/09/29 07:43:36;;;;;;;17.33;4.45;;;;;;;28.50;nan;95563.22;5044912;28;20203;-62
2023/09/29 07:46:03;;;;;;;13.95;4.78;;;;;;;29.73;nan;95560.56;5044558;28;20586;-65
2023/09/29 07:48:30;;;;;;;15.73;5.18;;;;;;;30.50;nan;95558.72;5043455;28;20231;-63
2023/09/29 07:50:56;;;;;;;12.55;4.57;;;;;;;29.99;nan;95571.03;5045043;28;20195;-63
2023/09/29 07:53:23;;;;;;;15.73;4.25;;;;;;;29.12;nan;95561.50;5042443;28;20292;-63
2023/09/29 07:55:49;;;;;;;10.98;4.20;;;;;;;28.76;nan;95561.50;5044193;28;20202;-66
2023/09/29 07:58:16;;;;;;;10.00;4.43;;;;;;;28.59;nan;95564.13;5043867;28;20264;-63
2023/09/29 08:00:44;;;;;;;14.07;6.20;;;;;;;28.41;nan;95556.28;5043641;28;20214;-63
2023/09/29 08:03:11;;;;;;;10.10;5.25;;;;;;;28.16;nan;95557.78;5043879;28;20284;-62
2023/09/29 08:05:37;;;;;;;26.63;11.60;;;;;;;27.70;nan;95559.53;5044275;28;20261;-63
2023/09/29 08:08:04;;;;;;;10.93;4.68;;;;;;;27.30;nan;95558.94;5044357;28;20230;-65
2023/09/29 08:10:31;;;;;;;9.13;6.03;;;;;;;27.05;nan;95562.97;5044243;28;20282;-64
2023/09/29 08:12:58;;;;;;;12.20;4.88;;;;;;;26.94;nan;95563.91;5044498;28;20266;-65
2023/09/29 08:15:25;;;;;;;18.05;4.50;;;;;;;26.42;nan;95558.16;5043780;28;20203;-61
2023/09/29 08:17:53;;;;;;;9.25;4.82;;;;;;;26.14;nan;95564.13;5042778;28;20651;-61
2023/09/29 08:20:20;;;;;;;27.90;4.47;;;;;;;26.08;nan;95556.84;5044018;28;20203;-63
2023/09/29 08:22:47;;;;;;;18.83;4.30;;;;;;;25.88;nan;95565.56;5043916;28;20566;-64
2023/09/29 08:25:14;;;;;;;10.57;3.63;;;;;;;25.75;nan;95564.00;5047728;28;20313;-65
2023/09/29 08:27:41;;;;;;;16.90;6.40;;;;;;;25.67;nan;95558.63;5047451;28;20701;-64
2023/09/29 08:30:09;;;;;;;20.55;7.70;;;;;;;26.04;nan;95555.44;5047982;28;20753;-61
2023/09/29 08:32:36;;;;;;;15.52;4.75;;;;;;;26.02;nan;95554.75;5048451;28;20218;-64
2023/09/29 08:35:05;;;;;;;9.85;4.60;;;;;;;25.78;nan;95552.50;5048524;28;20234;-64
2023/09/29 08:37:32;;;;;;;15.60;4.38;;;;;;;26.05;nan;95551.88;5048400;28;20195;-65
2023/09/29 08:39:59;;;;;;;11.50;5.80;;;;;;;26.14;nan;95548.50;5047667;28;20203;-65
2023/09/29 08:42:34;;;;;;;20.63;5.60;;;;;;;26.67;nan;95550.75;5046560;28;20699;-64
2023/09/29 08:45:03;;;;;;;22.35;5.10;;;;;;;27.05;nan;95549.91;5048145;28;20205;-64
2023/09/29 08:47:30;;;;;;;12.50;4.57;;;;;;;28.00;nan;95542.72;5047754;28;20213;-64
2023/09/29 08:49:58;;;;;;;20.35;6.63;;;;;;;29.15;nan;95539.44;5048808;28;20298;-63
2023/09/29 08:52:29;;;;;;;8.82;4.10;;;;;;;30.39;nan;95542.31;5050752;28;20270;-66
2023/09/29 08:54:56;;;;;;;8.73;4.57;;;;;;;31.49;nan;95541.00;5050439;28;20199;-64
2023/09/29 08:57:25;;;;;;;9.32;4.43;;;;;;;31.93;nan;95540.56;5051047;28;20761;-64
2023/09/29 08:59:54;;;;;;;11.05;4.47;;;;;;;31.53;nan;95534.44;5050582;28;20298;-61
2023/09/29 09:02:20;;;;;;;11.15;3.70;;;;;;;31.53;nan;95537.06;5047581;28;20211;-64
2023/09/29 09:04:48;;;;;;;4.18;3.65;;;;;;;30.50;nan;95532.47;5047549;28;20268;-64
2023/09/29 09:07:15;;;;;;;6.15;3.50;;;;;;;29.55;nan;95534.44;5047707;28;20282;-62
2023/09/29 09:09:49;;;;;;;9.98;4.45;;;;;;;29.22;nan;95543.06;5047367;28;20222;-62
2023/09/29 09:12:15;;;;;;;7.72;3.13;;;;;;;27.82;nan;95543.66;5047366;28;20600;-63
2023/09/29 09:14:44;;;;;;;9.68;3.22;;;;;;;26.52;nan;95546.91;5047420;28;21589;-63
2023/09/29 09:17:11;;;;;;;5.85;3.40;;;;;;;26.24;nan;95544.09;5049823;28;20199;-64
2023/09/29 09:19:43;;;;;;;8.90;3.80;;;;;;;25.80;nan;95547.97;5048489;28;20673;-63
2023/09/29 09:22:14;;;;;;;9.52;2.90;;;;;;;25.52;nan;95536.47;5048481;28;20199;-65
2023/09/29 09:24:41;;;;;;;6.15;3.50;;;;;;;25.40;nan;95542.72;5049105;28;20748;-63
2023/09/29 09:27:09;;;;;;;5.10;3.55;;;;;;;25.29;nan;95540.19;5046892;28;20320;-64
2023/09/29 09:29:41;;;;;;;5.93;2.92;;;;;;;25.59;nan;95541.97;5045638;28;20217;-62
2023/09/29 09:32:07;;;;;;;7.60;3.10;;;;;;;25.52;nan;95535.66;5043793;28;20249;-63
2023/09/29 09:34:36;;;;;;;7.50;3.30;;;;;;;25.23;nan;95535.53;5049050;28;20236;-62
2023/09/29 09:37:03;;;;;;;6.57;3.30;;;;;;;25.40;nan;95530.53;5050540;28;20253;-63
2023/09/29 09:39:30;;;;;;;5.22;3.28;;;;;;;25.73;nan;95539.91;5049979;28;20203;-63
2023/09/29 09:41:57;;;;;;;8.35;2.92;;;;;;;26.02;nan;95533.91;5049977;28;20232;-64
2023/09/29 09:44:26;;;;;;;5.38;3.10;;;;;;;26.54;nan;95539.78;5050259;28;20272;-63
2023/09/29 09:46:57;;;;;;;7.53;3.00;;;;;;;26.78;nan;95522.75;5050004;28;20207;-62
2023/09/29 09:49:29;;;;;;;6.18;3.22;;;;;;;27.03;nan;95531.78;5051208;28;20227;-63
2023/09/29 09:52:03;;;;;;;7.40;2.97;;;;;;;27.44;nan;95529.78;5051479;28;20230;-62
2023/09/29 09:54:36;;;;;;;8.40;3.13;;;;;;;27.68;nan;95524.91;5052082;28;20257;-65
2023/09/29 09:57:08;;;;;;;5.53;2.70;;;;;;;27.69;nan;95526.56;5051712;28;20226;-64
2023/09/29 09:59:37;;;;;;;11.07;3.00;;;;;;;27.10;nan;95526.84;5051696;28;20282;-63
2023/09/29 10:02:06;;;;;;;8.63;3.78;;;;;;;26.55;nan;95531.00;5051532;28;20226;-63
2023/09/29 10:04:35;;;;;;;13.90;3.13;;;;;;;25.88;nan;95529.09;5051461;28;20218;-65
2023/09/29 10:07:04;;;;;;;8.65;3.78;;;;;;;25.43;nan;95521.66;5052554;28;20653;-63
2023/09/29 10:09:41;;;;;;;10.70;3.45;;;;;;;25.25;nan;95521.41;5051234;28;20222;-63
2023/09/29 10:12:09;;;;;;;9.75;4.28;;;;;;;24.88;nan;95526.25;5051475;28;20592;-64
2023/09/29 10:14:44;;;;;;;8.77;3.40;;;;;;;24.83;nan;95514.56;5050759;28;20257;-64
2023/09/29 10:17:13;;;;;;;15.05;3.88;;;;;;;24.74;nan;95526.59;5051206;28;20714;-63
2023/09/29 10:19:40;;;;;;;10.38;3.47;;;;;;;24.46;nan;95520.22;5050850;28;20206;-64
2023/09/29 10:22:08;;;;;;;11.07;3.28;;;;;;;24.13;nan;95515.91;5051179;28;20222;-63
2023/09/29 10:24:35;;;;;;;12.30;4.00;;;;;;;24.23;nan;95519.44;5051038;28;20261;-62
2023/09/29 10:27:04;;;;;;;10.65;3.50;;;;;;;23.98;nan;95505.00;5050952;28;20273;-63
2023/09/29 10:29:34;;;;;;;7.45;3.58;;;;;;;23.88;nan;95506.66;5050542;28;20219;-63
2023/09/29 10:32:10;;;;;;;9.73;3.50;;;;;;;23.81;nan;95504.66;5050814;28;20572;-61
2023/09/29 10:34:37;;;;;;;7.72;4.03;;;;;;;23.71;nan;95508.00;5050651;28;20202;-63
2023/09/29 10:37:04;;;;;;;11.43;4.03;;;;;;;23.65;nan;95497.28;5051097;28;20231;-65
2023/09/29 10:39:31;;;;;;;11.35;3.45;;;;;;;23.95;nan;95501.81;5050733;28;20207;-62
2023/09/29 10:41:59;;;;;;;5.85;3.53;;;;;;;24.20;nan;95498.91;5050508;28;20238;-63
2023/09/29 10:44:27;;;;;;;11.57;3.13;;;;;;;24.33;nan;95494.38;5038853;28;20199;-63
2023/09/29 10:46:54;;;;;;;11.65;3.72;;;;;;;24.50;nan;95500.00;5049901;28;20202;-62
2023/09/29 10:49:31;;;;;;;8.07;4.05;;;;;;;24.83;nan;95491.19;5050597;28;20276;-64
2023/09/29 10:51:58;;;;;;;7.40;3.45;;;;;;;24.83;nan;95502.41;5050670;28;20289;-63
2023/09/29 10:54:25;;;;;;;4.25;3.25;;;;;;;24.95;nan;95490.22;5050596;28;20252;-63
2023/09/29 10:56:52;;;;;;;13.73;3.55;;;;;;;25.33;nan;95484.34;5050239;28;20687;-64
2023/09/29 10:59:18;;;;;;;6.75;3.45;;;;;;;25.34;nan;95491.22;5050416;28;20277;-64
2023/09/29 11:01:46;;;;;;;5.93;3.42;;;;;;;25.46;nan;95484.16;5050301;28;20214;-65
2023/09/29 11:04:13;;;;;;;5.93;3.38;;;;;;;25.52;nan;95489.63;5050428;28;20245;-64
2023/09/29 11:06:49;;;;;;;6.90;3.28;;;;;;;25.58;nan;95483.91;5050512;28;20231;-64
2023/09/29 11:09:19;;;;;;;7.50;3.33;;;;;;;25.67;nan;95483.16;5050496;28;20603;-66
2023/09/29 11:11:46;;;;;;;11.38;4.13;;;;;;;25.48;nan;95477.03;5050167;28;20210;-62
2023/09/29 11:14:12;;;;;;;7.35;3.42;;;;;;;25.58;nan;95478.69;5050200;28;20227;-63
2023/09/29 11:16:39;;;;;;;4.40;3.22;;;;;;;25.63;nan;95480.94;5050477;28;20280;-65
2023/09/29 11:19:11;;;;;;;6.70;3.50;;;;;;;25.43;nan;95464.41;5049985;28;20715;-62
2023/09/29 11:21:39;;;;;;;6.50;3.50;;;;;;;25.62;nan;95468.84;5050294;28;20210;-65
2023/09/29 11:24:09;;;;;;;9.38;3.60;;;;;;;25.61;nan;95468.03;5049516;28;20699;-63
2023/09/29 11:26:40;;;;;;;8.50;4.28;;;;;;;25.50;nan;95459.47;5038262;28;20239;-64
2023/09/29 11:29:08;;;;;;;9.95;3.92;;;;;;;25.43;nan;95454.00;5049463;28;20226;-62
2023/09/29 11:31:36;;;;;;;12.32;4.40;;;;;;;25.55;nan;95454.72;5050548;28;20284;-63
2023/09/29 11:34:03;;;;;;;12.85;3.78;;;;;;;25.73;nan;95456.59;5049799;28;20235;-65